« Back
NWS Peachtree City, Ga » Text Product » CSG Terminal Aerodrome Forecast


Printer-friendly Version
Current Version              Previous Versions:   1  2  3  4  5  6  7  8  9  

Terminal Aerodrome Forecast

122
FTUS42 KFFC 170300 AAA
TAFCSG
TAF AMD
KCSG 170336Z 1703/1724 10006KT P6SM SKC
     FM171300 09010KT P6SM SCT025 BKN250
     FM171600 10010G20KT P6SM SCT040 BKN250
     FM172000 10009G16KT P6SM BKN040=



USA.gov is the U.S. government's official web portal to all federal, state and local government web resources and services.